Time;durP1;ratioP1;P1;durP2;ratioP2;P2;SDS_P1;SDS_P2;PMS_P1;PMS_P2;Temp;Humidity;BMP_temperature;BMP_pressure;BME280_temperature;BME280_humidity;BME280_pressure;Samples;Min_cycle;Max_cycle;Signal;HPM_P1;HPM_P2
2023/01/05 00:02:20;;;;;;;7.73;7.53;;;10.90;99.90;;;;;;5062308;28;20242;-81
2023/01/05 00:04:47;;;;;;;7.90;7.70;;;10.90;99.90;;;;;;5063152;28;20235;-82
2023/01/05 00:07:21;;;;;;;7.80;7.60;;;10.90;99.90;;;;;;5063314;28;20223;-81
2023/01/05 00:09:48;;;;;;;7.70;7.50;;;10.80;99.90;;;;;;5063672;28;20255;-80
2023/01/05 00:23:19;;;;;;;7.13;6.93;;;10.40;99.90;;;;;;5061619;28;20234;-81
2023/01/05 00:25:47;;;;;;;6.90;6.70;;;10.30;99.90;;;;;;5059902;28;20254;-80
2023/01/05 00:28:16;;;;;;;6.90;6.70;;;10.30;99.90;;;;;;5061064;28;20270;-80
2023/01/05 00:30:46;;;;;;;7.10;6.90;;;10.20;99.90;;;;;;5061086;28;20251;-80
2023/01/05 00:33:15;;;;;;;6.93;6.73;;;10.30;99.90;;;;;;5045715;28;20326;-80
2023/01/05 00:35:43;;;;;;;7.27;7.07;;;10.30;99.90;;;;;;5042056;28;20263;-80
2023/01/05 00:38:11;;;;;;;6.90;6.70;;;10.30;99.90;;;;;;5041371;28;20238;-80
2023/01/05 00:40:39;;;;;;;7.00;6.80;;;10.20;99.90;;;;;;5041762;28;20291;-80
2023/01/05 00:43:06;;;;;;;6.80;6.60;;;10.20;99.90;;;;;;5040778;28;20303;-79
2023/01/05 00:45:35;;;;;;;6.97;6.77;;;10.20;99.90;;;;;;5041384;28;20235;-80
2023/01/05 00:48:03;;;;;;;7.03;6.83;;;10.20;99.90;;;;;;5041062;28;20237;-80
2023/01/05 00:50:31;;;;;;;6.87;6.67;;;10.20;99.90;;;;;;5041953;28;20261;-80
2023/01/05 00:52:58;;;;;;;6.97;6.77;;;10.30;99.90;;;;;;5040780;28;20323;-80
2023/01/05 00:55:26;;;;;;;7.03;6.83;;;10.30;99.90;;;;;;5041325;28;20228;-80
2023/01/05 00:57:53;;;;;;;7.10;6.90;;;10.30;99.90;;;;;;5041060;28;20326;-81
2023/01/05 01:00:21;;;;;;;6.83;6.63;;;10.20;99.90;;;;;;5059879;28;20251;-81
2023/01/05 01:02:52;;;;;;;7.23;7.03;;;10.30;99.90;;;;;;5059958;28;20298;-80
2023/01/05 01:05:20;;;;;;;6.97;6.77;;;10.30;99.90;;;;;;5060705;28;20249;-80
2023/01/05 01:07:48;;;;;;;6.80;6.60;;;10.30;99.90;;;;;;5060415;28;20241;-80
2023/01/05 01:10:16;;;;;;;6.80;6.60;;;10.20;99.90;;;;;;5060611;28;20257;-80
2023/01/05 01:12:43;;;;;;;7.10;6.90;;;10.20;99.90;;;;;;5059173;28;20782;-80
2023/01/05 01:15:11;;;;;;;6.90;6.70;;;10.20;99.90;;;;;;5059899;28;20231;-81
2023/01/05 01:17:39;;;;;;;6.50;6.30;;;10.20;99.90;;;;;;5060226;28;20245;-81
2023/01/05 01:20:10;;;;;;;6.63;6.43;;;10.20;99.90;;;;;;5060457;28;20298;-81
2023/01/05 01:22:37;;;;;;;6.53;6.33;;;10.20;99.90;;;;;;5059665;28;20301;-81
2023/01/05 01:25:06;;;;;;;7.13;6.93;;;10.20;99.90;;;;;;5060343;28;20235;-81
2023/01/05 01:27:34;;;;;;;6.80;6.60;;;10.20;99.90;;;;;;5059784;28;20290;-80
2023/01/05 01:30:02;;;;;;;6.90;6.70;;;10.20;99.90;;;;;;5059889;28;20282;-81
2023/01/05 01:32:29;;;;;;;7.10;6.90;;;10.30;99.90;;;;;;5059640;28;20238;-81
2023/01/05 01:34:57;;;;;;;6.93;6.73;;;10.30;99.90;;;;;;5059620;28;20230;-81
2023/01/05 01:37:26;;;;;;;7.03;6.83;;;10.30;99.90;;;;;;5059124;28;20292;-81
2023/01/05 01:39:53;;;;;;;6.90;6.70;;;10.30;99.90;;;;;;5059294;28;20273;-81
2023/01/05 01:42:22;;;;;;;7.13;6.93;;;10.30;99.90;;;;;;5059553;28;20235;-81
2023/01/05 01:44:57;;;;;;;7.10;6.90;;;10.30;99.90;;;;;;5059431;28;20278;-81
2023/01/05 01:47:33;;;;;;;7.10;6.90;;;10.30;99.90;;;;;;5059515;28;20226;-81
2023/01/05 01:50:05;;;;;;;6.70;6.50;;;10.30;99.90;;;;;;5059228;28;20222;-81
2023/01/05 01:52:35;;;;;;;6.70;6.50;;;10.20;99.90;;;;;;5059159;28;20257;-81
2023/01/05 01:55:06;;;;;;;7.10;6.90;;;10.30;99.90;;;;;;5059375;28;20261;-80
2023/01/05 01:57:35;;;;;;;6.67;6.47;;;10.20;99.90;;;;;;5059981;28;20231;-81
2023/01/05 02:00:07;;;;;;;6.77;6.57;;;10.30;99.90;;;;;;5060038;28;20238;-81
2023/01/05 02:02:34;;;;;;;7.20;7.00;;;10.30;99.90;;;;;;5059403;28;20235;-81
2023/01/05 02:05:08;;;;;;;7.10;6.90;;;10.30;99.90;;;;;;5060645;28;20230;-80
2023/01/05 02:07:44;;;;;;;6.90;6.70;;;10.30;99.90;;;;;;5058464;28;20241;-81
2023/01/05 02:10:12;;;;;;;6.80;6.60;;;10.30;99.90;;;;;;5048114;28;20244;-81
2023/01/05 02:13:01;;;;;;;6.70;6.50;;;10.30;99.90;;;;;;5059353;28;20251;-81
2023/01/05 02:15:43;;;;;;;6.50;6.30;;;10.30;99.90;;;;;;5059945;28;20290;-81
2023/01/05 02:18:28;;;;;;;6.80;6.60;;;10.30;99.90;;;;;;5059740;28;20232;-81
2023/01/05 02:21:11;;;;;;;6.73;6.53;;;10.30;99.90;;;;;;5059765;28;20238;-81
2023/01/05 02:24:14;;;;;;;6.60;6.40;;;10.30;99.90;;;;;;5058380;28;20325;-81
2023/01/05 02:27:21;;;;;;;6.50;6.30;;;10.30;99.90;;;;;;5058887;28;20321;-81
2023/01/05 02:30:58;;;;;;;6.60;6.40;;;10.30;99.90;;;;;;5058786;28;20325;-81
2023/01/05 02:33:54;;;;;;;6.80;6.60;;;10.30;99.90;;;;;;5040658;28;20235;-81
2023/01/05 02:36:29;;;;;;;6.70;6.50;;;10.30;99.90;;;;;;5047919;28;20309;-82
2023/01/05 02:39:04;;;;;;;6.80;6.60;;;10.30;99.90;;;;;;5059195;28;20233;-81
2023/01/05 02:41:37;;;;;;;6.90;6.70;;;10.30;99.90;;;;;;5058507;28;20232;-81
2023/01/05 02:44:07;;;;;;;6.80;6.60;;;10.30;99.90;;;;;;5061358;28;20238;-81
2023/01/05 02:46:35;;;;;;;6.70;6.50;;;10.40;99.90;;;;;;5062485;28;20264;-81
2023/01/05 02:49:06;;;;;;;6.90;6.70;;;10.40;99.90;;;;;;5063040;28;20326;-81
2023/01/05 02:51:38;;;;;;;6.57;6.37;;;10.40;99.90;;;;;;5062597;28;20215;-81
2023/01/05 02:54:10;;;;;;;6.60;6.40;;;10.40;99.90;;;;;;5062388;28;20226;-81
2023/01/05 02:56:45;;;;;;;6.80;6.60;;;10.40;99.90;;;;;;5062192;28;20240;-80
2023/01/05 02:59:17;;;;;;;6.70;6.50;;;10.40;99.90;;;;;;5063232;28;20229;-82
2023/01/05 03:01:50;;;;;;;6.70;6.50;;;10.40;99.90;;;;;;5062047;28;20847;-81
2023/01/05 03:04:23;;;;;;;6.57;6.37;;;10.50;99.90;;;;;;5063121;28;20221;-81
2023/01/05 03:06:55;;;;;;;6.40;6.20;;;10.50;99.90;;;;;;5062442;28;20250;-81
2023/01/05 03:09:26;;;;;;;6.60;6.40;;;10.50;99.90;;;;;;5062710;28;20235;-81
2023/01/05 03:14:50;;;;;;;6.70;6.50;;;10.50;99.90;;;;;;5062312;28;20204;-81
2023/01/05 03:17:24;;;;;;;6.53;6.33;;;10.50;99.90;;;;;;5061700;28;20326;-83
2023/01/05 03:19:54;;;;;;;6.80;6.60;;;10.50;99.90;;;;;;5061787;28;20247;-81
2023/01/05 03:36:43;;;;;;;7.27;7.07;;;10.80;99.90;;;;;;5062890;28;20274;-80
2023/01/05 03:39:12;;;;;;;7.20;7.00;;;10.90;99.90;;;;;;5062131;28;20243;-81
2023/01/05 03:41:40;;;;;;;7.30;7.10;;;10.90;99.90;;;;;;5061622;28;20231;-81
2023/01/05 03:44:08;;;;;;;7.20;7.00;;;10.90;99.90;;;;;;5060789;28;20231;-81
2023/01/05 03:46:36;;;;;;;7.10;6.90;;;11.00;99.90;;;;;;5065111;28;20273;-81
2023/01/05 03:49:03;;;;;;;7.33;7.13;;;11.00;99.90;;;;;;5062317;28;20338;-81
2023/01/05 03:51:31;;;;;;;7.70;7.50;;;11.10;99.90;;;;;;5062115;28;20231;-81
2023/01/05 03:54:00;;;;;;;7.50;7.30;;;11.10;99.90;;;;;;5061289;28;20239;-82
2023/01/05 03:56:27;;;;;;;7.30;7.10;;;11.20;99.90;;;;;;5060739;28;20296;-81
2023/01/05 03:58:55;;;;;;;7.40;7.20;;;11.20;99.90;;;;;;5061665;28;20326;-80
2023/01/05 04:01:23;;;;;;;7.50;7.30;;;11.30;99.90;;;;;;5062618;28;20346;-81
2023/01/05 04:03:50;;;;;;;7.30;7.10;;;11.30;99.90;;;;;;5062134;28;20260;-81
2023/01/05 04:06:18;;;;;;;7.40;7.20;;;11.30;99.90;;;;;;5061910;28;20238;-81
2023/01/05 04:08:45;;;;;;;7.50;7.30;;;11.30;99.90;;;;;;5062029;28;20231;-81
2023/01/05 04:11:17;;;;;;;7.33;7.13;;;11.30;99.90;;;;;;5061079;28;20235;-81
2023/01/05 04:13:45;;;;;;;7.17;6.97;;;11.30;99.90;;;;;;5060968;28;20241;-81
2023/01/05 04:16:13;;;;;;;7.30;7.10;;;11.30;99.90;;;;;;5062084;28;20250;-81
2023/01/05 04:18:41;;;;;;;7.40;7.20;;;11.30;99.90;;;;;;5061034;28;20288;-81
2023/01/05 04:21:09;;;;;;;7.20;7.00;;;11.30;99.90;;;;;;5061716;28;20774;-80
2023/01/05 04:23:36;;;;;;;7.00;6.80;;;11.30;99.90;;;;;;5059931;28;20258;-80
2023/01/05 04:26:04;;;;;;;7.50;7.30;;;11.20;99.90;;;;;;5061401;28;20330;-80
2023/01/05 04:28:34;;;;;;;7.30;7.10;;;11.20;99.90;;;;;;5061608;28;20219;-80
2023/01/05 04:31:01;;;;;;;7.70;7.50;;;11.20;99.90;;;;;;5061250;28;20341;-81
2023/01/05 04:33:29;;;;;;;6.87;6.67;;;11.20;99.90;;;;;;5060948;28;20246;-81
2023/01/05 04:35:56;;;;;;;7.27;7.07;;;11.20;99.90;;;;;;5061533;28;20233;-81
2023/01/05 04:38:24;;;;;;;7.23;7.03;;;11.20;99.90;;;;;;5061523;28;20238;-81
2023/01/05 04:40:52;;;;;;;7.13;6.93;;;11.30;99.90;;;;;;5061220;28;20237;-80
2023/01/05 04:43:20;;;;;;;7.30;7.10;;;11.30;99.90;;;;;;5060239;28;20317;-80
2023/01/05 04:45:49;;;;;;;7.30;7.10;;;11.30;99.90;;;;;;5060432;28;20299;-81
2023/01/05 04:48:17;;;;;;;7.53;7.33;;;11.30;99.90;;;;;;5060683;28;20234;-80
2023/01/05 04:50:45;;;;;;;7.57;7.37;;;11.30;99.90;;;;;;5061083;28;20265;-81
2023/01/05 04:53:12;;;;;;;7.47;7.27;;;11.30;99.90;;;;;;5061174;28;20258;-81
2023/01/05 04:55:40;;;;;;;7.60;7.40;;;11.30;99.90;;;;;;5060604;28;20230;-81
2023/01/05 04:58:11;;;;;;;7.53;7.33;;;11.30;99.90;;;;;;5060265;28;20261;-81
2023/01/05 05:00:38;;;;;;;7.37;7.17;;;11.30;99.90;;;;;;5061401;28;20273;-81
2023/01/05 05:03:07;;;;;;;7.60;7.40;;;11.30;99.90;;;;;;5060587;28;20389;-81
2023/01/05 05:05:35;;;;;;;7.40;7.20;;;11.20;99.90;;;;;;5069492;28;20267;-81
2023/01/05 05:08:03;;;;;;;7.60;7.40;;;11.20;99.90;;;;;;5079249;28;20238;-80
2023/01/05 05:10:30;;;;;;;7.37;7.17;;;11.10;99.90;;;;;;5077883;28;20211;-81
2023/01/05 05:12:58;;;;;;;6.90;6.70;;;11.00;99.90;;;;;;5078859;28;20242;-82
2023/01/05 05:15:25;;;;;;;7.03;6.83;;;10.90;99.90;;;;;;5078393;28;20223;-81
2023/01/05 05:17:56;;;;;;;6.67;6.47;;;10.90;99.90;;;;;;5077843;28;20265;-81
2023/01/05 05:20:25;;;;;;;7.00;6.80;;;10.70;99.90;;;;;;5076805;28;20291;-81
2023/01/05 05:22:52;;;;;;;6.60;6.40;;;10.50;99.90;;;;;;5076213;28;20321;-81
2023/01/05 05:25:24;;;;;;;6.70;6.50;;;10.40;99.90;;;;;;5064404;23;20238;-81
2023/01/05 05:27:54;;;;;;;6.60;6.40;;;10.40;99.90;;;;;;5018398;28;20232;-80
2023/01/05 05:30:23;;;;;;;6.27;6.10;;;10.30;99.90;;;;;;5006948;28;20232;-80
2023/01/05 05:32:52;;;;;;;6.57;6.37;;;10.20;99.90;;;;;;5002618;28;20263;-80
2023/01/05 05:35:21;;;;;;;6.40;6.20;;;10.20;99.90;;;;;;5001793;28;20236;-81
2023/01/05 05:38:00;;;;;;;6.10;6.00;;;10.20;99.90;;;;;;5002544;28;20260;-82
2023/01/05 05:40:32;;;;;;;6.00;5.90;;;10.10;99.90;;;;;;5003104;28;20240;-84
2023/01/05 05:43:00;;;;;;;5.90;5.80;;;10.10;99.90;;;;;;5002918;28;20248;-82
2023/01/05 05:45:29;;;;;;;6.00;5.90;;;10.10;99.90;;;;;;5002560;28;20233;-81
2023/01/05 05:48:00;;;;;;;5.90;5.80;;;10.00;99.90;;;;;;5001776;28;20236;-81
2023/01/05 05:50:38;;;;;;;5.80;5.70;;;9.90;99.90;;;;;;5002533;28;20237;-82
2023/01/05 05:53:09;;;;;;;6.10;6.00;;;9.90;99.90;;;;;;5003609;28;20311;-82
2023/01/05 05:55:45;;;;;;;6.10;6.00;;;9.80;99.90;;;;;;5006362;28;20239;-81
2023/01/05 05:58:15;;;;;;;6.57;6.37;;;9.80;99.90;;;;;;5018640;28;20236;-80
2023/01/05 06:00:44;;;;;;;6.27;6.10;;;9.80;99.90;;;;;;5019230;28;20227;-81
2023/01/05 06:03:19;;;;;;;6.40;6.20;;;9.70;99.90;;;;;;5012004;28;20255;-83
2023/01/05 06:05:52;;;;;;;6.23;6.10;;;9.70;99.90;;;;;;5005345;28;20235;-83
2023/01/05 06:08:32;;;;;;;6.10;6.00;;;9.70;99.90;;;;;;5004805;28;20233;-82
2023/01/05 06:11:09;;;;;;;6.10;6.00;;;9.60;99.90;;;;;;5004019;28;20289;-81
2023/01/05 06:13:39;;;;;;;6.30;6.10;;;9.60;99.90;;;;;;5002618;28;20252;-82
2023/01/05 06:16:10;;;;;;;6.47;6.27;;;9.60;99.90;;;;;;5009178;28;20228;-82
2023/01/05 06:18:40;;;;;;;6.20;6.10;;;9.60;99.90;;;;;;5021081;28;20263;-81
2023/01/05 06:21:08;;;;;;;6.30;6.10;;;9.50;99.90;;;;;;5021691;28;20295;-81
2023/01/05 06:23:46;;;;;;;6.37;6.17;;;9.50;99.90;;;;;;5021726;28;20228;-81
2023/01/05 06:26:25;;;;;;;6.60;6.40;;;9.50;99.90;;;;;;5021331;28;20227;-82
2023/01/05 06:29:11;;;;;;;6.70;6.50;;;9.50;99.90;;;;;;5021597;28;21087;-82
2023/01/05 06:31:49;;;;;;;6.70;6.50;;;9.40;99.90;;;;;;5021205;28;20690;-82
2023/01/05 06:34:18;;;;;;;6.90;6.70;;;9.40;99.90;;;;;;5020823;28;20246;-82
2023/01/05 06:36:46;;;;;;;6.77;6.57;;;9.30;99.90;;;;;;5021837;28;20333;-81
2023/01/05 06:39:18;;;;;;;6.80;6.60;;;9.30;99.90;;;;;;5020910;28;20235;-82
2023/01/05 06:41:54;;;;;;;6.90;6.70;;;9.40;99.90;;;;;;5021694;28;20308;-82
2023/01/05 06:44:44;;;;;;;7.10;6.90;;;9.30;99.90;;;;;;5021344;28;20305;-82
2023/01/05 06:47:21;;;;;;;7.30;7.10;;;9.30;99.90;;;;;;5026896;28;20255;-81
2023/01/05 06:50:25;;;;;;;7.30;7.10;;;9.20;99.90;;;;;;5028288;28;20310;-82
2023/01/05 07:03:38;;;;;;;8.23;8.03;;;9.20;99.90;;;;;;4961122;28;20234;-82
2023/01/05 07:06:53;;;;;;;8.50;8.30;;;9.20;99.90;;;;;;4966030;28;20234;-82
2023/01/05 07:15:48;;;;;;;8.33;8.13;;;9.20;99.90;;;;;;5020092;28;20234;-82
2023/01/05 09:19:39;;;;;;;9.40;9.10;;;10.30;99.90;;;;;;5022902;28;20244;-81
2023/01/05 09:22:15;;;;;;;9.43;9.13;;;10.30;99.90;;;;;;5026750;28;20320;-80
2023/01/05 09:24:47;;;;;;;9.40;9.10;;;10.30;99.90;;;;;;5027248;28;20266;-80
2023/01/05 09:27:14;;;;;;;9.23;8.93;;;10.30;99.90;;;;;;5024882;28;20220;-82
2023/01/05 09:29:44;;;;;;;9.20;8.90;;;10.30;99.90;;;;;;5028055;28;20224;-84
2023/01/05 09:32:11;;;;;;;9.30;9.00;;;10.40;99.90;;;;;;5031073;28;20232;-82
2023/01/05 09:34:45;;;;;;;9.40;9.10;;;10.40;99.90;;;;;;5036001;28;20271;-85
2023/01/05 09:37:24;;;;;;;9.20;8.90;;;10.40;99.90;;;;;;5036246;28;20331;-83
2023/01/05 09:39:59;;;;;;;9.20;8.90;;;10.40;99.90;;;;;;5031254;28;20244;-83
2023/01/05 09:42:35;;;;;;;9.10;8.80;;;10.50;99.90;;;;;;5030787;28;20223;-84
2023/01/05 11:33:04;;;;;;;9.60;9.30;;;11.10;99.90;;;;;;5001523;28;20233;-86
2023/01/05 11:35:46;;;;;;;9.43;9.13;;;11.00;99.90;;;;;;5002869;28;20229;-84
2023/01/05 11:38:30;;;;;;;9.50;9.20;;;11.00;99.90;;;;;;5021076;28;20266;-85
2023/01/05 11:41:13;;;;;;;9.30;9.00;;;10.90;99.90;;;;;;5020671;28;20232;-86
2023/01/05 11:43:59;;;;;;;9.23;8.93;;;10.90;99.90;;;;;;5021503;28;20240;-86
2023/01/05 11:46:57;;;;;;;9.00;8.80;;;10.90;99.90;;;;;;5022520;28;20264;-86
2023/01/05 11:49:37;;;;;;;8.43;8.23;;;10.90;99.90;;;;;;5021135;28;20236;-87
2023/01/05 11:52:40;;;;;;;8.50;8.30;;;10.90;99.90;;;;;;5020165;28;20252;-86
2023/01/05 11:55:40;;;;;;;8.57;8.37;;;11.00;99.90;;;;;;5020101;28;20235;-85
2023/01/05 11:58:27;;;;;;;8.53;8.33;;;11.00;99.90;;;;;;5020190;28;20228;-86
2023/01/05 12:01:59;;;;;;;8.93;8.67;;;11.00;99.90;;;;;;5020136;28;20224;-85
2023/01/05 12:05:07;;;;;;;9.10;8.80;;;10.90;99.90;;;;;;5019490;28;20243;-87
2023/01/05 12:08:06;;;;;;;;;;;;;;;;;;;;;
2023/01/05 12:11:24;;;;;;;8.50;8.30;;;10.90;99.90;;;;;;5026374;28;20221;-87
2023/01/05 12:14:17;;;;;;;9.30;9.00;;;10.90;99.90;;;;;;5040200;28;20219;-86
2023/01/05 12:16:54;;;;;;;8.83;8.63;;;11.20;99.90;;;;;;5040748;28;20205;-86
2023/01/05 12:19:59;;;;;;;9.20;8.90;;;11.70;99.90;;;;;;5041968;28;20207;-86
2023/01/05 12:23:23;;;;;;;8.97;8.77;;;12.00;99.90;;;;;;5034251;28;20226;-86
2023/01/05 12:26:08;;;;;;;9.10;8.80;;;12.30;99.90;;;;;;5019355;28;20240;-85
2023/01/05 12:32:18;;;;;;;8.70;8.50;;;12.90;99.90;;;;;;5017051;28;20224;-85
2023/01/05 12:35:22;;;;;;;8.60;8.40;;;13.10;99.90;;;;;;5019858;28;20232;-86
2023/01/05 12:38:20;;;;;;;8.30;8.10;;;12.90;99.90;;;;;;5019717;28;20236;-86
2023/01/05 12:41:51;;;;;;;8.20;8.00;;;12.50;99.90;;;;;;5013363;28;21188;-86
2023/01/05 12:44:55;;;;;;;8.40;8.20;;;12.20;99.90;;;;;;5011942;28;20366;-86
2023/01/05 12:47:52;;;;;;;8.60;8.40;;;11.80;99.90;;;;;;5019070;28;20228;-86
2023/01/05 12:50:42;;;;;;;8.77;8.57;;;11.50;99.90;;;;;;5011328;28;20240;-85
2023/01/05 12:53:24;;;;;;;8.90;8.70;;;11.30;99.90;;;;;;5000577;28;20236;-85
2023/01/05 12:56:01;;;;;;;8.87;8.67;;;11.00;99.90;;;;;;4999106;28;20225;-85
2023/01/05 12:58:47;;;;;;;9.13;8.83;;;10.90;99.90;;;;;;5000011;28;20236;-86
2023/01/05 13:01:30;;;;;;;9.17;8.87;;;10.90;99.90;;;;;;5003049;28;20316;-85
2023/01/05 13:04:06;;;;;;;9.13;8.83;;;11.00;99.90;;;;;;4999836;28;20308;-85
2023/01/05 13:06:55;;;;;;;9.50;9.20;;;11.00;99.90;;;;;;4999326;28;20777;-86
2023/01/05 13:09:31;;;;;;;9.30;9.00;;;11.10;99.90;;;;;;5008177;28;20236;-86
2023/01/05 13:12:12;;;;;;;8.90;8.70;;;11.00;99.90;;;;;;5024782;28;20290;-86
2023/01/05 13:15:06;;;;;;;8.97;8.73;;;11.10;99.90;;;;;;5018936;28;20231;-86
2023/01/05 13:18:01;;;;;;;9.47;9.17;;;11.10;99.90;;;;;;5019260;28;20240;-88
2023/01/05 13:21:07;;;;;;;9.50;9.20;;;11.10;99.90;;;;;;5011298;28;20239;-87
2023/01/05 13:23:54;;;;;;;8.90;8.70;;;11.10;99.90;;;;;;5019014;28;20242;-88
2023/01/05 13:26:33;;;;;;;8.60;8.40;;;11.10;99.90;;;;;;5014369;28;20271;-86
2023/01/05 13:29:27;;;;;;;8.90;8.70;;;11.10;99.90;;;;;;5019413;28;20694;-86
2023/01/05 13:32:22;;;;;;;8.37;8.17;;;11.20;99.90;;;;;;5029750;28;20204;-86
2023/01/05 13:35:18;;;;;;;8.60;8.40;;;11.20;99.90;;;;;;5041454;28;20247;-85
2023/01/05 13:38:33;;;;;;;8.47;8.27;;;11.30;99.90;;;;;;5040916;28;20232;-86
2023/01/05 13:45:02;;;;;;;8.90;8.70;;;11.30;99.90;;;;;;5019065;28;20236;-85
2023/01/05 13:47:55;;;;;;;8.87;8.67;;;11.20;99.90;;;;;;5012201;28;21085;-86
2023/01/05 13:51:12;;;;;;;9.10;8.80;;;11.30;99.90;;;;;;5022290;28;20239;-86
2023/01/05 13:53:50;;;;;;;8.80;8.60;;;11.50;99.90;;;;;;5020056;28;20232;-86
2023/01/05 13:56:26;;;;;;;9.20;8.90;;;11.60;99.90;;;;;;5021591;28;20232;-85
2023/01/05 13:59:25;;;;;;;9.30;9.00;;;11.80;99.90;;;;;;5021478;28;20232;-85
2023/01/05 14:02:37;;;;;;;9.23;8.93;;;11.80;99.90;;;;;;5022851;28;20259;-86
2023/01/05 14:05:28;;;;;;;8.80;8.60;;;11.70;99.90;;;;;;4987832;28;20240;-85
2023/01/05 14:14:14;;;;;;;9.30;9.00;;;11.20;99.90;;;;;;5019403;28;20232;-86
2023/01/05 14:17:18;;;;;;;8.70;8.50;;;11.10;99.90;;;;;;5026095;28;20223;-85
2023/01/05 14:20:12;;;;;;;9.07;8.77;;;11.10;99.90;;;;;;5038300;28;20228;-86
2023/01/05 14:22:50;;;;;;;9.23;8.93;;;11.10;99.90;;;;;;5033525;28;20239;-86
2023/01/05 14:25:54;;;;;;;9.23;8.93;;;11.20;99.90;;;;;;5027756;28;20239;-84
2023/01/05 14:32:48;;;;;;;8.90;8.70;;;11.30;99.90;;;;;;4924836;29;20276;-84
2023/01/05 14:43:22;;;;;;;;;;;;;;;;;;;;;
2023/01/05 14:47:10;;;;;;;8.60;8.40;;;11.20;99.90;;;;;;4990681;28;20213;-85
2023/01/05 14:51:01;;;;;;;8.40;8.20;;;11.20;99.90;;;;;;4990951;28;20241;-85
2023/01/05 15:01:06;;;;;;;8.57;8.37;;;11.00;99.90;;;;;;5003086;28;20215;-84
2023/01/05 15:07:38;;;;;;;8.50;8.30;;;10.90;99.90;;;;;;4997523;28;20217;-85
2023/01/05 15:11:10;;;;;;;8.67;8.47;;;10.80;99.90;;;;;;5001673;28;20265;-85
2023/01/05 15:14:33;;;;;;;8.70;8.50;;;10.70;99.90;;;;;;4968774;28;20308;-82
2023/01/05 15:21:54;;;;;;;8.40;8.20;;;10.60;99.90;;;;;;5029465;28;20280;-86
2023/01/05 15:25:24;;;;;;;8.13;7.93;;;10.50;99.90;;;;;;4979533;28;20239;-86
2023/01/05 15:28:45;;;;;;;8.33;8.13;;;10.50;99.90;;;;;;5025310;28;20231;-86
2023/01/05 15:35:05;;;;;;;8.20;8.00;;;10.40;99.90;;;;;;5000915;28;20236;-86
2023/01/05 15:37:41;;;;;;;7.67;7.47;;;10.40;99.90;;;;;;5004299;28;20225;-84
2023/01/05 15:40:43;;;;;;;8.27;8.07;;;10.30;99.90;;;;;;5010772;28;20216;-86
2023/01/05 15:43:24;;;;;;;8.07;7.87;;;10.30;99.90;;;;;;5023308;28;20231;-86
2023/01/05 15:46:02;;;;;;;7.50;7.30;;;10.30;99.90;;;;;;5022551;28;20256;-85
2023/01/05 15:51:40;;;;;;;7.70;7.50;;;10.30;99.90;;;;;;5026601;28;20248;-84
2023/01/05 15:54:23;;;;;;;7.50;7.30;;;10.20;99.90;;;;;;5022279;28;20270;-86
2023/01/05 15:56:53;;;;;;;7.47;7.27;;;10.20;99.90;;;;;;4996615;28;20237;-85
2023/01/05 15:59:33;;;;;;;7.40;7.20;;;10.20;99.90;;;;;;5019308;28;20306;-86
2023/01/05 16:02:18;;;;;;;8.00;7.80;;;10.20;99.90;;;;;;5036369;28;20274;-86
2023/01/05 16:04:47;;;;;;;7.83;7.63;;;10.20;99.90;;;;;;5039267;28;20227;-86
2023/01/05 16:07:18;;;;;;;8.00;7.80;;;10.20;99.90;;;;;;5031078;28;20256;-85
2023/01/05 16:09:47;;;;;;;7.83;7.63;;;10.10;99.90;;;;;;5022573;28;20267;-85
2023/01/05 16:12:25;;;;;;;8.00;7.80;;;10.10;99.90;;;;;;5021973;28;20236;-86
2023/01/05 16:15:04;;;;;;;7.80;7.60;;;10.10;99.90;;;;;;5016636;28;20264;-85
2023/01/05 16:17:44;;;;;;;7.73;7.53;;;10.10;99.90;;;;;;4992633;28;20332;-85
2023/01/05 16:20:20;;;;;;;7.67;7.47;;;10.00;99.90;;;;;;5019440;28;20228;-86
2023/01/05 16:22:58;;;;;;;7.50;7.30;;;10.00;99.90;;;;;;5014612;28;20236;-86
2023/01/05 16:25:29;;;;;;;8.00;7.80;;;10.00;99.90;;;;;;5021807;28;20247;-85
2023/01/05 16:28:07;;;;;;;7.77;7.57;;;10.00;99.90;;;;;;5021705;28;20268;-85
2023/01/05 16:30:37;;;;;;;8.10;7.90;;;9.90;99.90;;;;;;5021550;28;20236;-84
2023/01/05 16:33:33;;;;;;;8.10;7.90;;;9.90;99.90;;;;;;5022073;28;20323;-85
2023/01/05 16:36:20;;;;;;;8.30;8.10;;;9.80;99.90;;;;;;5019358;28;20282;-85
2023/01/05 16:38:49;;;;;;;7.80;7.60;;;9.80;99.90;;;;;;5020398;28;20231;-84
2023/01/05 16:41:25;;;;;;;7.97;7.77;;;9.80;99.90;;;;;;5021897;28;20292;-85
2023/01/05 16:44:03;;;;;;;7.90;7.70;;;9.80;99.90;;;;;;5022323;28;20234;-87
2023/01/05 16:46:43;;;;;;;7.90;7.70;;;9.80;99.90;;;;;;5019732;28;20254;-86
2023/01/05 16:49:39;;;;;;;8.10;7.90;;;9.80;99.90;;;;;;5019135;28;20239;-84
2023/01/05 16:52:09;;;;;;;7.73;7.53;;;9.90;99.90;;;;;;5026658;28;20228;-83
2023/01/05 16:54:40;;;;;;;7.77;7.57;;;9.90;99.90;;;;;;5039136;28;20227;-82
2023/01/05 16:57:33;;;;;;;8.10;7.90;;;9.90;99.90;;;;;;5039315;28;20240;-79
2023/01/05 17:00:03;;;;;;;7.93;7.73;;;9.90;99.90;;;;;;5017395;28;20236;-85
2023/01/05 17:02:48;;;;;;;7.90;7.70;;;9.90;99.90;;;;;;5022489;28;20263;-84
2023/01/05 17:05:27;;;;;;;7.93;7.73;;;9.90;99.90;;;;;;5027210;28;20295;-84
2023/01/05 17:08:14;;;;;;;8.20;8.00;;;9.90;99.90;;;;;;5039825;28;20271;-83
2023/01/05 17:10:44;;;;;;;8.10;7.90;;;9.80;99.90;;;;;;5033242;28;20220;-84
2023/01/05 17:13:16;;;;;;;8.20;8.00;;;9.80;99.90;;;;;;5016067;28;20224;-83
2023/01/05 17:15:51;;;;;;;7.60;7.40;;;9.80;99.90;;;;;;5008349;28;20233;-85
2023/01/05 17:18:21;;;;;;;7.50;7.30;;;9.80;99.90;;;;;;5019178;28;20236;-87
2023/01/05 17:20:59;;;;;;;7.53;7.33;;;9.80;99.90;;;;;;4983302;28;20240;-85
2023/01/05 17:23:58;;;;;;;7.40;7.20;;;9.70;99.90;;;;;;4988341;28;20250;-88
2023/01/05 17:26:29;;;;;;;7.50;7.30;;;9.70;99.90;;;;;;5030361;23;20220;-80
2023/01/05 17:29:00;;;;;;;7.60;7.40;;;9.70;99.90;;;;;;5027266;28;20374;-80
2023/01/05 17:31:28;;;;;;;7.87;7.67;;;9.60;99.90;;;;;;5031323;28;20237;-79
2023/01/05 17:33:55;;;;;;;8.00;7.80;;;9.60;99.90;;;;;;5025919;28;20304;-80
2023/01/05 17:36:30;;;;;;;7.80;7.60;;;9.60;99.90;;;;;;5016119;28;20260;-80
2023/01/05 17:38:57;;;;;;;7.90;7.70;;;9.60;99.90;;;;;;5006013;28;20238;-81
2023/01/05 17:41:25;;;;;;;7.70;7.50;;;9.60;99.90;;;;;;5006079;28;20244;-81
2023/01/05 17:43:52;;;;;;;7.57;7.37;;;9.50;99.90;;;;;;5006041;28;20288;-81
2023/01/05 17:46:33;;;;;;;7.53;7.33;;;9.40;99.90;;;;;;5006576;28;20280;-80
2023/01/05 17:49:02;;;;;;;7.53;7.33;;;9.40;99.90;;;;;;5004866;28;20264;-80
2023/01/05 17:51:31;;;;;;;7.67;7.47;;;9.40;99.90;;;;;;5005190;28;20328;-80
2023/01/05 17:54:00;;;;;;;7.87;7.67;;;9.40;99.90;;;;;;5009874;28;20306;-80
2023/01/05 17:56:27;;;;;;;7.77;7.57;;;9.30;99.90;;;;;;5015945;28;20251;-80
2023/01/05 17:58:55;;;;;;;8.00;7.80;;;9.30;99.90;;;;;;5024639;28;20311;-80
2023/01/05 18:01:23;;;;;;;8.03;7.83;;;9.30;99.90;;;;;;5023310;28;20243;-83
2023/01/05 18:03:51;;;;;;;8.20;8.00;;;9.30;99.90;;;;;;5020370;28;20319;-80
2023/01/05 18:06:18;;;;;;;8.10;7.90;;;9.30;99.90;;;;;;5021874;28;20220;-80
2023/01/05 18:08:47;;;;;;;8.17;7.97;;;9.30;99.90;;;;;;5020495;28;20311;-80
2023/01/05 18:11:15;;;;;;;7.80;7.60;;;9.30;99.90;;;;;;5022471;28;20347;-80
2023/01/05 18:13:43;;;;;;;8.00;7.80;;;9.30;99.90;;;;;;5020674;28;20298;-81
2023/01/05 18:16:12;;;;;;;7.77;7.57;;;9.20;99.90;;;;;;5021984;28;20331;-80
2023/01/05 18:18:40;;;;;;;8.10;7.90;;;9.30;99.90;;;;;;5020415;28;20243;-80
2023/01/05 18:21:08;;;;;;;7.83;7.63;;;9.30;99.90;;;;;;5020303;28;20248;-82
2023/01/05 18:23:36;;;;;;;7.83;7.63;;;9.30;99.90;;;;;;5021374;28;20319;-81
2023/01/05 18:26:09;;;;;;;7.90;7.70;;;9.30;99.90;;;;;;5020038;28;20302;-81
2023/01/05 18:28:37;;;;;;;7.97;7.77;;;9.30;99.90;;;;;;5020772;28;20315;-81
2023/01/05 18:31:11;;;;;;;7.80;7.60;;;9.30;99.90;;;;;;5021795;28;20228;-80
2023/01/05 18:33:39;;;;;;;7.97;7.77;;;9.30;99.90;;;;;;5021333;28;20307;-80
2023/01/05 18:36:08;;;;;;;7.80;7.60;;;9.30;99.90;;;;;;5021469;28;20259;-81
2023/01/05 18:38:37;;;;;;;8.10;7.90;;;9.30;99.90;;;;;;5020844;28;20318;-81
2023/01/05 18:41:07;;;;;;;7.80;7.60;;;9.30;99.90;;;;;;5020591;28;20268;-81
2023/01/05 18:43:36;;;;;;;8.07;7.87;;;9.20;99.90;;;;;;5019398;28;20228;-81
2023/01/05 18:46:04;;;;;;;8.17;7.97;;;9.20;99.90;;;;;;5019721;28;20389;-81
2023/01/05 18:48:32;;;;;;;7.90;7.70;;;9.20;99.90;;;;;;5019757;28;20224;-81
2023/01/05 18:50:59;;;;;;;7.93;7.73;;;9.20;99.90;;;;;;5019688;28;20259;-81
2023/01/05 18:53:27;;;;;;;7.83;7.63;;;9.20;99.90;;;;;;5020701;28;20236;-81
2023/01/05 18:55:54;;;;;;;7.90;7.70;;;9.10;99.90;;;;;;5006348;28;20320;-79
2023/01/05 18:58:24;;;;;;;7.67;7.47;;;9.10;99.90;;;;;;5018144;28;20252;-80
2023/01/05 19:00:51;;;;;;;8.00;7.80;;;9.10;99.90;;;;;;5019855;28;20304;-80
2023/01/05 19:03:19;;;;;;;7.90;7.70;;;9.00;99.90;;;;;;5020170;28;20238;-80
2023/01/05 19:05:47;;;;;;;7.90;7.70;;;8.90;99.90;;;;;;5006920;28;20260;-80
2023/01/05 19:08:18;;;;;;;8.10;7.90;;;9.00;99.90;;;;;;5000116;28;20233;-80
2023/01/05 19:10:45;;;;;;;8.00;7.80;;;8.90;99.90;;;;;;5000375;28;20236;-78